Time;durP1;ratioP1;P1;durP2;ratioP2;P2;SDS_P1;SDS_P2;PMS_P1;PMS_P2;Temp;Humidity;BMP_temperature;BMP_pressure;BME280_temperature;BME280_humidity;BME280_pressure;Samples;Min_cycle;Max_cycle;Signal;HPM_P1;HPM_P2
2023/10/01 00:00:19;;;;;;;;;14.25;13.25;;;;;23.17;100.00;101835.50;2113484;27;46617;-58
2023/10/01 00:01:20;;;;;;;;;13.00;12.75;;;;;23.17;100.00;101834.63;2113282;27;46586;-56
2023/10/01 00:02:20;;;;;;;;;13.33;13.00;;;;;23.17;100.00;101840.03;2113409;27;46722;-59
2023/10/01 00:03:20;;;;;;;;;15.25;14.50;;;;;23.17;100.00;101830.09;2113481;27;46232;-59
2023/10/01 00:04:21;;;;;;;;;6.50;6.00;;;;;23.16;100.00;101833.75;2113359;27;46290;-58
2023/10/01 00:05:25;;;;;;;;;17.00;15.50;;;;;23.14;100.00;101837.53;2115565;27;46830;-60
2023/10/01 00:06:25;;;;;;;;;15.60;15.40;;;;;23.12;100.00;101834.91;2122103;27;46453;-59
2023/10/01 00:07:27;;;;;;;;;17.00;15.00;;;;;23.14;100.00;101832.97;2113058;27;46656;-60
2023/10/01 00:08:27;;;;;;;;;16.80;13.80;;;;;23.13;100.00;101828.53;2113545;27;46938;-59
2023/10/01 00:09:28;;;;;;;;;16.75;14.00;;;;;23.14;100.00;101832.97;2113288;27;46887;-60
2023/10/01 00:10:28;;;;;;;;;16.40;15.40;;;;;23.14;100.00;101835.69;2109011;27;46414;-57
2023/10/01 00:11:29;;;;;;;;;15.25;13.00;;;;;23.14;100.00;101830.28;2113380;27;46222;-60
2023/10/01 00:12:29;;;;;;;;;18.25;16.00;;;;;23.14;100.00;101832.09;2096945;28;46684;-60
2023/10/01 00:13:30;;;;;;;;;13.25;11.50;;;;;23.14;100.00;101832.09;2099867;27;46757;-59
2023/10/01 00:14:30;;;;;;;;;12.25;12.25;;;;;23.12;100.00;101832.19;2113481;27;46139;-59
2023/10/01 00:15:31;;;;;;;;;16.00;14.00;;;;;23.11;100.00;101834.97;2113253;27;46181;-58
2023/10/01 00:16:32;;;;;;;;;17.00;14.25;;;;;23.11;100.00;101838.53;2113495;27;46264;-58
2023/10/01 00:17:32;;;;;;;;;13.80;11.40;;;;;23.11;100.00;101833.13;2113661;27;46771;-59
2023/10/01 00:18:35;;;;;;;;;13.00;12.00;;;;;23.11;100.00;101830.41;2113208;27;46480;-58
2023/10/01 00:19:38;;;;;;;;;13.60;13.40;;;;;23.12;100.00;101839.41;2113453;27;46559;-60
2023/10/01 00:20:38;;;;;;;;;12.80;11.80;;;;;23.11;100.00;101835.84;2113130;27;46686;-58
2023/10/01 00:21:39;;;;;;;;;11.75;11.25;;;;;23.11;100.00;101837.66;2115884;27;46718;-60
2023/10/01 00:22:39;;;;;;;;;15.50;14.50;;;;;23.11;100.00;101837.66;2121501;27;46129;-60
2023/10/01 00:23:40;;;;;;;;;16.00;15.50;;;;;23.10;100.00;101835.91;2104734;27;46294;-59
2023/10/01 00:24:43;;;;;;;;;16.60;13.40;;;;;23.10;100.00;101839.50;2105097;27;45987;-58
2023/10/01 00:25:45;;;;;;;;;14.00;13.40;;;;;23.09;100.00;101834.19;2113089;27;46736;-57
2023/10/01 00:26:46;;;;;;;;;11.40;11.40;;;;;23.07;100.00;101838.81;2110397;27;46823;-58
2023/10/01 00:27:46;;;;;;;;;14.50;14.50;;;;;23.06;100.00;101834.34;2110105;27;46143;-58
2023/10/01 00:28:49;;;;;;;;;11.75;11.75;;;;;23.06;100.00;101832.53;2113039;27;46486;-59
2023/10/01 00:29:50;;;;;;;;;13.00;13.00;;;;;23.06;100.00;101832.53;2118172;27;46495;-60
2023/10/01 00:30:50;;;;;;;;;12.50;11.25;;;;;23.05;100.00;101836.19;2117714;27;46446;-58
2023/10/01 00:31:50;;;;;;;;;12.00;12.00;;;;;23.05;100.00;101838.03;2118108;27;45264;-59
2023/10/01 00:32:51;;;;;;;;;11.00;11.00;;;;;23.05;100.00;101836.19;2113584;27;46575;-60
2023/10/01 00:33:52;;;;;;;;;10.75;10.75;;;;;23.04;100.00;101839.88;2113046;27;47045;-57
2023/10/01 00:34:54;;;;;;;;;11.75;9.50;;;;;23.04;100.00;101841.69;2104896;28;46009;-60
2023/10/01 00:35:55;;;;;;;;;13.40;11.60;;;;;23.03;100.00;101838.13;2099050;28;46892;-58
2023/10/01 00:36:55;;;;;;;;;15.50;15.00;;;;;23.02;100.00;101830.97;2111137;27;46514;-59
2023/10/01 00:37:55;;;;;;;;;14.50;11.75;;;;;23.01;100.00;101840.03;2113097;27;46238;-58
2023/10/01 00:38:56;;;;;;;;;14.50;13.50;;;;;23.01;100.00;101837.34;2113753;27;46142;-57
2023/10/01 00:39:59;;;;;;;;;13.25;11.00;;;;;23.01;100.00;101836.47;2113060;27;46367;-60
2023/10/01 00:40:59;;;;;;;;;13.00;13.00;;;;;22.99;100.00;101831.09;2113399;27;46436;-57
2023/10/01 00:41:59;;;;;;;;;12.00;11.00;;;;;23.00;100.00;101834.72;2112379;27;46400;-59
2023/10/01 00:43:02;;;;;;;;;14.25;13.25;;;;;23.01;100.00;101828.34;2095034;28;46275;-59
2023/10/01 00:44:03;;;;;;;;;13.20;11.40;;;;;23.00;100.00;101826.59;2092247;27;46379;-61
2023/10/01 00:45:08;;;;;;;;;14.80;13.60;;;;;22.99;100.00;101822.09;2094785;28;46444;-56
2023/10/01 00:46:08;;;;;;;;;10.60;10.00;;;;;22.97;100.00;101827.63;2096520;27;46841;-59
2023/10/01 00:47:10;;;;;;;;;16.00;14.25;;;;;22.97;100.00;101822.19;2113535;27;46285;-59
2023/10/01 00:48:17;;;;;;;;;12.40;12.40;;;;;22.97;100.00;101827.63;2113245;27;46197;-58
2023/10/01 00:49:17;;;;;;;;;19.40;13.80;;;;;22.98;100.00;101825.78;2113049;27;46566;-61
2023/10/01 00:50:23;;;;;;;;;11.25;11.00;;;;;22.97;100.00;101826.75;2113420;27;46750;-60
2023/10/01 00:51:24;;;;;;;;;15.00;12.20;;;;;22.96;100.00;101825.88;2113017;27;46359;-58
2023/10/01 00:52:24;;;;;;;;;13.50;11.75;;;;;22.96;100.00;101820.47;2113537;27;46859;-57
2023/10/01 00:53:25;;;;;;;;;12.50;12.00;;;;;22.95;100.00;101820.53;2113560;27;46445;-60
2023/10/01 00:54:28;;;;;;;;;13.75;11.00;;;;;22.95;100.00;101818.72;2113087;27;46074;-60
2023/10/01 00:55:28;;;;;;;;;14.80;13.00;;;;;22.95;100.00;101817.84;2113272;27;46841;-58
2023/10/01 00:56:29;;;;;;;;;13.75;12.00;;;;;22.94;100.00;101821.50;2113057;27;46398;-59
2023/10/01 00:57:30;;;;;;;;;15.75;14.75;;;;;22.94;100.00;101824.22;2112916;27;46287;-59
2023/10/01 00:58:30;;;;;;;;;12.50;11.25;;;;;22.92;100.00;101815.31;2112640;27;46204;-60
2023/10/01 00:59:33;;;;;;;;;11.00;10.75;;;;;22.90;100.00;101816.28;2112837;27;46762;-59
2023/10/01 01:00:34;;;;;;;;;12.40;12.00;;;;;22.91;100.00;101814.44;2104421;27;46445;-59
2023/10/01 01:01:34;;;;;;;;;13.00;13.00;;;;;22.92;100.00;101813.47;2111354;27;46353;-59
2023/10/01 01:02:46;;;;;;;;;13.60;13.60;;;;;22.92;100.00;101812.59;2113280;27;46450;-58
2023/10/01 01:03:52;;;;;;;;;13.60;11.60;;;;;22.92;100.00;101807.19;2113110;27;46358;-59
2023/10/01 01:06:23;;;;;;;;;16.20;13.40;;;;;22.91;100.00;101806.31;2095189;28;46326;-57
2023/10/01 01:07:23;;;;;;;;;13.40;12.60;;;;;22.90;100.00;101810.00;2091534;28;46530;-59
2023/10/01 01:08:33;;;;;;;;;11.25;11.00;;;;;22.90;100.00;101810.84;2087148;28;46317;-60
2023/10/01 01:09:36;;;;;;;;;18.80;17.40;;;;;22.89;100.00;101809.13;2093817;28;46479;-60
2023/10/01 01:10:41;;;;;;;;;12.00;9.80;;;;;22.92;100.00;101812.59;2095437;28;46641;-56
2023/10/01 01:11:46;;;;;;;;;12.20;12.20;;;;;22.92;100.00;101802.66;2095210;28;46845;-58
2023/10/01 01:12:54;;;;;;;;;21.20;17.20;;;;;22.93;100.00;101806.22;2088357;28;46500;-60
2023/10/01 01:13:55;;;;;;;;;14.80;13.00;;;;;22.91;100.00;101811.72;2081412;28;46291;-57
2023/10/01 01:14:58;;;;;;;;;12.00;11.75;;;;;22.93;100.00;101811.63;2087111;28;45844;-60
2023/10/01 01:16:00;;;;;;;;;11.80;11.80;;;;;22.91;100.00;101806.31;2095672;28;46645;-60
2023/10/01 01:17:00;;;;;;;;;12.60;12.60;;;;;22.90;100.00;101810.00;2087244;28;46696;-59
2023/10/01 01:18:07;;;;;;;;;11.25;8.75;;;;;22.88;100.00;101812.78;2079126;28;46235;-59
2023/10/01 01:19:09;;;;;;;;;15.20;14.40;;;;;22.88;100.00;101806.50;2084866;28;46752;-54
2023/10/01 01:20:09;;;;;;;;;13.20;11.80;;;;;22.86;100.00;101803.84;2095287;28;46702;-59
2023/10/01 01:21:10;;;;;;;;;15.67;13.67;;;;;22.87;100.00;101804.75;2095604;28;46391;-59
2023/10/01 01:22:28;;;;;;;;;15.00;14.00;;;;;22.86;100.00;101800.28;2095510;28;46776;-56
2023/10/01 01:23:30;;;;;;;;;14.80;12.80;;;;;22.85;100.00;101803.94;2095360;28;47302;-57
2023/10/01 01:24:31;;;;;;;;;10.00;10.00;;;;;22.84;100.00;101794.06;2095071;28;45596;-58
2023/10/01 01:25:32;;;;;;;;;14.25;12.75;;;;;22.85;100.00;101801.22;2086891;28;46467;-59
2023/10/01 01:26:32;;;;;;;;;15.00;15.00;;;;;22.86;100.00;101797.56;2086610;28;46543;-58
2023/10/01 01:27:34;;;;;;;;;13.50;13.50;;;;;22.85;100.00;101791.28;2069930;28;46666;-59
2023/10/01 01:28:35;;;;;;;;;12.75;12.00;;;;;22.86;100.00;101801.13;2070329;28;46501;-58
2023/10/01 01:29:44;;;;;;;;;14.33;13.00;;;;;22.85;100.00;101791.28;2082325;28;46787;-59
2023/10/01 01:30:47;;;;;;;;;15.50;14.25;;;;;22.83;100.00;101792.31;2079287;28;46409;-58
2023/10/01 01:32:02;;;;;;;;;11.50;10.00;;;;;22.83;100.00;101786.91;2085949;28;45289;-58
2023/10/01 01:33:03;;;;;;;;;13.75;11.25;;;;;22.81;100.00;101777.97;2083717;28;46529;-60
2023/10/01 01:34:05;;;;;;;;;13.67;12.33;;;;;22.80;100.00;101787.94;2086663;28;46572;-60
2023/10/01 01:35:06;;;;;;;;;13.50;12.25;;;;;22.80;100.00;101787.06;2069551;28;46667;-58
2023/10/01 01:36:17;;;;;;;;;17.50;14.75;;;;;22.80;100.00;101777.09;2069627;28;46507;-58
2023/10/01 01:37:30;;;;;;;;;13.00;11.80;;;;;22.80;100.00;101781.66;2086432;28;46896;-60
2023/10/01 01:38:32;;;;;;;;;9.60;7.60;;;;;22.74;100.00;101776.56;2085668;28;46388;-60
2023/10/01 01:39:48;;;;;;;;;13.40;12.00;;;;;22.77;100.00;101779.13;2088171;28;46780;-58
2023/10/01 01:40:51;;;;;;;;;12.50;12.50;;;;;22.76;100.00;101770.13;2088742;28;46591;-58
2023/10/01 01:41:52;;;;;;;;;14.25;12.50;;;;;22.76;100.00;101772.84;2090400;28;46586;-58
2023/10/01 01:42:56;;;;;;;;;15.25;13.75;;;;;22.78;100.00;101767.34;2088311;28;46234;-57
2023/10/01 01:43:57;;;;;;;;;15.00;13.25;;;;;22.75;100.00;101772.94;2090594;28;46510;-56
2023/10/01 01:45:19;;;;;;;;;16.20;14.80;;;;;22.77;100.00;101768.28;2105129;28;46776;-61
2023/10/01 01:46:19;;;;;;;;;16.40;14.20;;;;;22.77;100.00;101768.28;2102723;27;46692;-56
2023/10/01 01:47:19;;;;;;;;;14.00;14.00;;;;;22.76;100.00;101771.97;2097807;28;46474;-59
2023/10/01 01:48:34;;;;;;;;;13.00;12.50;;;;;22.77;100.00;101768.28;2099685;27;46776;-58
2023/10/01 01:49:34;;;;;;;;;14.00;14.00;;;;;22.77;100.00;101765.59;2099115;28;46487;-61
2023/10/01 01:50:35;;;;;;;;;14.67;13.00;;;;;22.75;100.00;101770.22;2105803;27;46732;-57
2023/10/01 01:51:36;;;;;;;;;15.20;13.60;;;;;22.77;100.00;101765.59;2104713;28;46472;-58
2023/10/01 01:52:37;;;;;;;;;17.00;17.00;;;;;22.75;100.00;101768.38;2105933;27;46408;-58
2023/10/01 01:53:41;;;;;;;;;15.50;14.75;;;;;22.76;100.00;101766.56;2105922;27;46371;-59
2023/10/01 01:54:42;;;;;;;;;13.00;13.00;;;;;22.74;100.00;101769.34;2100093;27;46697;-58
2023/10/01 01:55:42;;;;;;;;;16.00;16.00;;;;;22.75;100.00;101772.94;2098874;28;46508;-60
2023/10/01 01:56:45;;;;;;;;;14.25;12.75;;;;;22.73;100.00;101769.41;2100380;27;46251;-57
2023/10/01 01:58:02;;;;;;;;;12.00;11.00;;;;;22.74;100.00;101777.47;2098543;27;47344;-59
2023/10/01 01:59:12;;;;;;;;;16.20;13.20;;;;;22.72;100.00;101767.66;2107040;27;47076;-61
2023/10/01 02:00:13;;;;;;;;;15.60;14.20;;;;;22.74;100.00;101772.06;2109613;27;46485;-59
2023/10/01 02:02:14;;;;;;;;;12.00;12.00;;;;;22.73;100.00;101777.53;2103552;28;46327;-59
2023/10/01 02:03:14;;;;;;;;;11.75;11.75;;;;;22.72;100.00;101778.47;2095234;28;46482;-59
2023/10/01 02:04:15;;;;;;;;;15.00;15.00;;;;;22.71;100.00;101777.63;2103697;28;46706;-55
2023/10/01 02:05:17;;;;;;;;;16.00;16.00;;;;;22.69;100.00;101779.53;2106136;28;46455;-59
2023/10/01 02:06:27;;;;;;;;;21.20;18.80;;;;;22.68;100.00;101776.91;2103950;27;46109;-59
2023/10/01 02:07:28;;;;;;;;;14.00;12.40;;;;;22.67;100.00;101777.88;2105902;27;46393;-58
2023/10/01 02:08:49;;;;;;;;;15.00;14.00;;;;;22.68;100.00;101780.50;2106134;27;46560;-59
2023/10/01 02:09:49;;;;;;;;;15.80;15.20;;;;;22.70;100.00;101775.00;2105085;27;46334;-59
2023/10/01 02:10:54;;;;;;;;;15.00;14.75;;;;;22.71;100.00;101774.91;2113608;27;46644;-57
2023/10/01 02:11:54;;;;;;;;;13.20;13.20;;;;;22.68;100.00;101771.50;2106863;27;46337;-58
2023/10/01 02:12:55;;;;;;;;;15.75;14.75;;;;;22.64;100.00;101770.81;2105509;27;46826;-59
2023/10/01 02:13:57;;;;;;;;;15.25;14.00;;;;;22.62;100.00;101775.44;2113198;27;46246;-60
2023/10/01 02:14:57;;;;;;;;;18.40;15.80;;;;;22.62;100.00;101775.44;2112803;27;46941;-58
2023/10/01 02:16:18;;;;;;;;;13.00;13.00;;;;;22.62;100.00;101780.84;2109928;27;46517;-60
2023/10/01 02:17:18;;;;;;;;;16.80;14.80;;;;;22.61;100.00;101776.38;2110259;27;47186;-59
2023/10/01 02:18:20;;;;;;;;;14.20;13.20;;;;;22.60;100.00;101774.63;2111985;27;46499;-56
2023/10/01 02:19:21;;;;;;;;;19.40;17.20;;;;;22.58;100.00;101779.25;2110850;27;46519;-58
2023/10/01 02:20:27;;;;;;;;;17.00;14.20;;;;;22.57;100.00;101774.78;2112465;27;46462;-60
2023/10/01 02:21:43;;;;;;;;;13.00;13.00;;;;;22.56;100.00;101773.06;2097514;28;46371;-60
2023/10/01 02:22:43;;;;;;;;;16.80;13.00;;;;;22.54;100.00;101781.25;2104359;28;46754;-58
2023/10/01 02:23:44;;;;;;;;;18.25;16.25;;;;;22.55;100.00;101779.44;2102244;27;46746;-58
2023/10/01 02:24:45;;;;;;;;;17.50;14.50;;;;;22.55;100.00;101771.31;2105020;28;46643;-59
2023/10/01 02:25:49;;;;;;;;;14.50;14.50;;;;;22.55;100.00;101776.72;2105798;27;46137;-58
2023/10/01 02:26:53;;;;;;;;;13.80;13.80;;;;;22.54;100.00;101770.44;2105715;27;46497;-56
2023/10/01 02:28:10;;;;;;;;;14.60;14.60;;;;;22.54;100.00;101767.72;2105392;27;45728;-58
2023/10/01 02:29:13;;;;;;;;;13.00;12.40;;;;;22.53;100.00;101782.22;2104837;28;46295;-60
2023/10/01 02:30:15;;;;;;;;;13.60;13.20;;;;;22.55;100.00;101782.13;2100007;28;46985;-58
2023/10/01 02:31:15;;;;;;;;;14.60;13.80;;;;;22.55;100.00;101774.00;2108816;27;46965;-59
2023/10/01 02:32:16;;;;;;;;;17.00;17.00;;;;;22.57;100.00;101769.38;2098585;27;46352;-60
2023/10/01 02:33:17;;;;;;;;;15.75;13.75;;;;;22.58;100.00;101780.13;2105745;28;46260;-58
2023/10/01 02:34:18;;;;;;;;;15.60;13.80;;;;;22.57;100.00;101770.25;2105587;27;47019;-59
2023/10/01 02:35:41;;;;;;;;;14.75;13.50;;;;;22.57;100.00;101772.97;2105876;27;46450;-57
2023/10/01 02:36:42;;;;;;;;;11.60;10.60;;;;;22.57;100.00;101774.78;2105480;28;46917;-59
2023/10/01 02:37:42;;;;;;;;;12.00;11.40;;;;;22.55;100.00;101776.72;2104375;28;46717;-59
2023/10/01 02:38:46;;;;;;;;;15.75;15.75;;;;;22.56;100.00;101778.47;2104853;28;46262;-58
2023/10/01 02:39:46;;;;;;;;;14.60;14.60;;;;;22.56;100.00;101775.75;2104767;28;46076;-57
2023/10/01 02:40:48;;;;;;;;;15.25;14.50;;;;;22.54;100.00;101783.09;2104788;28;46503;-58
2023/10/01 02:42:09;;;;;;;;;13.80;12.20;;;;;22.52;100.00;101779.59;2098387;28;46643;-58
2023/10/01 02:43:13;;;;;;;;;13.40;13.40;;;;;22.52;100.00;101783.19;2096368;28;47385;-58
2023/10/01 02:44:13;;;;;;;;;13.20;13.20;;;;;22.51;100.00;101781.44;2100301;28;46628;-59
2023/10/01 02:45:41;;;;;;;;;14.50;14.25;;;;;22.51;100.00;101780.56;2105395;28;46156;-58
2023/10/01 02:46:34;;;;;;;;;15.40;15.00;;;;;22.50;100.00;101778.81;2104267;28;46635;-58
2023/10/01 02:47:34;;;;;;;;;15.25;14.75;;;;;22.51;100.00;101786.84;2104987;28;46309;-59
2023/10/01 02:48:36;;;;;;;;;15.75;15.75;;;;;22.50;100.00;101781.53;2105395;28;46823;-59
2023/10/01 02:49:49;;;;;;;;;18.00;15.40;;;;;22.50;100.00;101778.81;2104341;28;46484;-58
2023/10/01 02:50:52;;;;;;;;;15.40;14.00;;;;;22.49;100.00;101779.78;2104473;28;46346;-56
2023/10/01 02:51:53;;;;;;;;;18.60;15.60;;;;;22.49;100.00;101780.66;2104663;28;46799;-57
2023/10/01 02:52:55;;;;;;;;;17.00;16.00;;;;;22.46;100.00;101775.38;2104883;28;46458;-59
2023/10/01 02:54:04;;;;;;;;;15.80;14.80;;;;;22.46;100.00;101778.09;2104322;28;46816;-58
2023/10/01 02:55:17;;;;;;;;;18.80;16.40;;;;;22.42;100.00;101778.34;2102716;27;46415;-59
2023/10/01 02:56:18;;;;;;;;;14.80;14.00;;;;;22.45;100.00;101764.66;2111894;27;46833;-58
2023/10/01 02:57:24;;;;;;;;;16.50;15.75;;;;;22.45;100.00;101773.63;2106955;27;46193;-57
2023/10/01 02:58:27;;;;;;;;;18.20;16.00;;;;;22.44;100.00;101781.84;2104745;27;46268;-57
2023/10/01 02:59:28;;;;;;;;;14.00;13.00;;;;;22.41;100.00;101769.38;2102930;27;46484;-57
2023/10/01 03:00:32;;;;;;;;;18.40;16.00;;;;;22.41;100.00;101774.78;2100859;28;46540;-58
2023/10/01 03:01:32;;;;;;;;;17.20;15.20;;;;;22.41;100.00;101766.66;2104508;28;46640;-59
2023/10/01 03:02:33;;;;;;;;;20.25;17.00;;;;;22.41;100.00;101772.06;2104913;27;46348;-57
2023/10/01 03:03:38;;;;;;;;;17.25;13.50;;;;;22.41;100.00;101765.78;2098078;28;46764;-59
2023/10/01 03:04:40;;;;;;;;;13.20;13.20;;;;;22.40;100.00;101773.03;2097009;28;46553;-60
2023/10/01 03:05:46;;;;;;;;;15.40;15.40;;;;;22.41;100.00;101771.19;2105940;27;46273;-58
2023/10/01 03:06:55;;;;;;;;;17.60;17.00;;;;;22.39;100.00;101770.41;2101183;28;46361;-60
2023/10/01 03:08:11;;;;;;;;;16.40;15.20;;;;;22.38;100.00;101763.25;2087856;28;46699;-57
2023/10/01 03:09:22;;;;;;;;;21.40;16.20;;;;;22.37;100.00;101770.50;2091383;28;46377;-58
2023/10/01 03:10:25;;;;;;;;;17.00;17.00;;;;;22.37;100.00;101773.19;2101087;28;46588;-58
2023/10/01 03:11:26;;;;;;;;;17.80;17.80;;;;;22.38;100.00;101764.13;2105477;27;46454;-57
2023/10/01 03:12:40;;;;;;;;;19.60;17.20;;;;;22.39;100.00;101765.00;2105556;27;46595;-59
2023/10/01 03:13:40;;;;;;;;;17.40;15.60;;;;;22.38;100.00;101765.97;2105229;27;46766;-60
2023/10/01 03:14:43;;;;;;;;;16.25;14.00;;;;;22.37;100.00;101765.09;2107026;27;46441;-60
2023/10/01 03:15:44;;;;;;;;;15.60;15.60;;;;;22.36;100.00;101760.63;2112475;27;46837;-60
2023/10/01 03:16:53;;;;;;;;;19.00;19.00;;;;;22.36;100.00;101765.13;2113999;27;46365;-59
2023/10/01 03:17:58;;;;;;;;;17.40;17.00;;;;;22.35;100.00;101766.09;2114146;27;46207;-59
2023/10/01 03:19:12;;;;;;;;;16.60;15.60;;;;;22.33;100.00;101766.19;2105149;28;46543;-59
2023/10/01 03:21:07;;;;;;;;;17.60;16.00;;;;;22.32;100.00;101765.31;2111546;27;45229;-57
2023/10/01 03:22:56;;;;;;;;;14.40;14.00;;;;;22.29;100.00;101765.50;2113334;27;46783;-60
2023/10/01 03:23:58;;;;;;;;;16.20;16.20;;;;;22.30;100.00;101766.38;2112965;27;46491;-59
2023/10/01 03:25:13;;;;;;;;;17.00;15.00;;;;;22.30;100.00;101767.22;2104760;27;46653;-60
2023/10/01 03:26:14;;;;;;;;;18.60;17.60;;;;;22.30;100.00;101766.38;2107099;27;47455;-57
2023/10/01 03:27:25;;;;;;;;;15.50;12.75;;;;;22.31;100.00;101765.41;2113750;27;46467;-60
2023/10/01 03:28:42;;;;;;;;;15.80;15.00;;;;;22.31;100.00;101766.28;2113626;27;46501;-56
2023/10/01 03:30:00;;;;;;;;;7.60;6.80;;;;;22.28;100.00;101765.56;2118588;27;46635;-56
2023/10/01 03:31:12;;;;;;;;;17.80;16.00;;;;;22.27;100.00;101762.00;2120632;27;46406;-59
2023/10/01 03:32:28;;;;;;;;;17.60;17.60;;;;;22.28;100.00;101768.28;2113619;27;46564;-58
2023/10/01 03:33:30;;;;;;;;;15.20;15.00;;;;;22.27;100.00;101770.13;2113748;27;46472;-57
2023/10/01 03:34:30;;;;;;;;;18.80;17.40;;;;;22.28;100.00;101769.16;2113357;27;46521;-58
2023/10/01 03:35:31;;;;;;;;;13.50;12.25;;;;;22.28;100.00;101773.69;2113656;27;46296;-57
2023/10/01 03:36:32;;;;;;;;;17.00;16.75;;;;;22.28;100.00;101768.28;2113948;27;46625;-59
2023/10/01 03:37:38;;;;;;;;;15.80;14.00;;;;;22.29;100.00;101770.03;2113592;27;45670;-59
2023/10/01 03:38:40;;;;;;;;;16.80;15.80;;;;;22.30;100.00;101769.94;2114526;27;46678;-59
2023/10/01 03:39:42;;;;;;;;;17.40;14.80;;;;;22.30;100.00;101766.38;2113758;27;46277;-58
2023/10/01 03:41:06;;;;;;;;;21.00;18.60;;;;;22.29;100.00;101770.03;2112481;27;46548;-55
2023/10/01 03:43:18;;;;;;;;;14.00;14.00;;;;;22.28;100.00;101760.16;2113394;27;46945;-58
2023/10/01 03:44:40;;;;;;;;;13.40;10.80;;;;;22.28;100.00;101757.47;2113469;27;46434;-60
2023/10/01 03:45:52;;;;;;;;;13.60;12.60;;;;;22.27;100.00;101751.19;2113823;27;46854;-58
2023/10/01 03:46:52;;;;;;;;;12.80;12.80;;;;;22.24;100.00;101756.75;2113492;27;46585;-59
2023/10/01 03:47:58;;;;;;;;;16.00;15.50;;;;;22.25;100.00;101757.63;2113676;27;46233;-58
2023/10/01 03:48:58;;;;;;;;;15.80;14.20;;;;;22.26;100.00;101753.97;2110010;27;45217;-58
2023/10/01 03:49:59;;;;;;;;;15.75;15.00;;;;;22.26;100.00;101752.13;2096020;28;46413;-57
2023/10/01 03:51:00;;;;;;;;;14.60;14.40;;;;;22.26;100.00;101759.38;2102836;27;46577;-57
2023/10/01 03:52:00;;;;;;;;;15.75;14.75;;;;;22.26;100.00;101757.56;2104780;28;46460;-59
2023/10/01 03:53:10;;;;;;;;;15.75;15.00;;;;;22.26;100.00;101754.84;2104671;28;46361;-58
2023/10/01 03:54:14;;;;;;;;;18.00;15.80;;;;;22.28;100.00;101752.06;2113527;27;46875;-58
2023/10/01 03:55:30;;;;;;;;;13.80;13.40;;;;;22.28;100.00;101752.06;2113588;27;46939;-58
2023/10/01 03:56:32;;;;;;;;;14.25;14.00;;;;;22.26;100.00;101745.88;2113458;27;46682;-57
2023/10/01 03:57:52;;;;;;;;;13.20;13.20;;;;;22.25;100.00;101747.69;2113569;27;46579;-56
2023/10/01 03:58:55;;;;;;;;;16.75;14.50;;;;;22.25;100.00;101739.59;2113520;27;46490;-59
2023/10/01 04:00:27;;;;;;;;;15.00;12.60;;;;;22.27;100.00;101744.91;2113415;27;46934;-59
2023/10/01 04:01:26;;;;;;;;;15.20;14.20;;;;;22.26;100.00;101745.88;2104278;28;46723;-58
2023/10/01 04:02:28;;;;;;;;;15.20;14.00;;;;;22.25;100.00;101744.13;2111817;27;46815;-58
2023/10/01 04:03:38;;;;;;;;;15.40;12.20;;;;;22.24;100.00;101750.47;2112916;27;46165;-60
2023/10/01 04:04:56;;;;;;;;;14.00;13.00;;;;;22.23;100.00;101746.00;2111960;27;46890;-60
2023/10/01 04:05:56;;;;;;;;;14.40;12.20;;;;;22.21;100.00;101746.09;2116921;27;46771;-60
2023/10/01 04:07:09;;;;;;;;;13.50;13.50;;;;;22.21;100.00;101747.91;2110375;27;46390;-58
2023/10/01 04:08:16;;;;;;;;;14.00;12.00;;;;;22.17;100.00;101747.22;2117144;27;46294;-57
2023/10/01 04:09:19;;;;;;;;;13.25;12.00;;;;;22.19;100.00;101737.19;2106606;27;46736;-59
2023/10/01 04:11:49;;;;;;;;;14.00;12.80;;;;;22.21;100.00;101747.91;2113088;27;46548;-58
2023/10/01 04:12:58;;;;;;;;;12.00;12.00;;;;;22.21;100.00;101740.69;2113409;27;46482;-55
2023/10/01 04:14:08;;;;;;;;;11.60;11.60;;;;;22.24;100.00;101748.66;2113157;27;46390;-57
2023/10/01 04:15:09;;;;;;;;;14.40;13.40;;;;;22.22;100.00;101739.72;2113441;27;46809;-57
2023/10/01 04:16:14;;;;;;;;;16.40;14.40;;;;;22.24;100.00;101747.78;2113487;27;46588;-61
2023/10/01 04:17:25;;;;;;;;;16.20;15.00;;;;;22.23;100.00;101741.50;2111883;27;46300;-58
2023/10/01 04:18:28;;;;;;;;;14.80;14.40;;;;;22.24;100.00;101751.34;2110331;27;46577;-59
2023/10/01 04:19:31;;;;;;;;;13.60;12.20;;;;;22.24;100.00;101745.06;2113315;27;46357;-59
2023/10/01 04:20:33;;;;;;;;;15.20;13.40;;;;;22.23;100.00;101740.59;2112860;27;46843;-58
2023/10/01 04:21:34;;;;;;;;;11.80;10.80;;;;;22.22;100.00;101739.72;2112066;27;46848;-59
2023/10/01 04:22:36;;;;;;;;;9.00;9.00;;;;;22.21;100.00;101740.69;2113594;27;46491;-59
2023/10/01 04:23:47;;;;;;;;;15.00;13.75;;;;;22.22;100.00;101741.56;2112532;27;46008;-57
2023/10/01 04:25:01;;;;;;;;;14.00;14.00;;;;;22.22;100.00;101738.84;2109942;27;47541;-57
2023/10/01 04:26:06;;;;;;;;;13.75;11.75;;;;;22.21;100.00;101739.81;2112271;27;45402;-58
2023/10/01 04:27:18;;;;;;;;;16.40;14.20;;;;;22.20;100.00;101738.94;2116500;27;46024;-58
2023/10/01 04:28:22;;;;;;;;;14.25;13.25;;;;;22.20;100.00;101746.19;2110233;27;46503;-58
2023/10/01 04:29:24;;;;;;;;;18.75;14.25;;;;;22.19;100.00;101744.44;2113304;27;46684;-60
2023/10/01 04:30:26;;;;;;;;;15.60;13.60;;;;;22.18;100.00;101746.25;2113033;27;46784;-59
2023/10/01 04:32:47;;;;;;;;;14.80;13.20;;;;;22.18;100.00;101753.50;2110299;27;46632;-60
2023/10/01 04:33:49;;;;;;;;;10.50;10.50;;;;;22.17;100.00;101755.34;2110637;27;46776;-60
2023/10/01 04:34:50;;;;;;;;;18.75;14.00;;;;;22.18;100.00;101748.09;2116882;27;46535;-58
2023/10/01 04:35:51;;;;;;;;;12.67;11.33;;;;;22.17;100.00;101744.50;2114243;27;46622;-59
2023/10/01 04:36:53;;;;;;;;;15.00;14.25;;;;;22.17;100.00;101747.22;2113251;27;46365;-58
2023/10/01 04:37:53;;;;;;;;;12.75;10.25;;;;;22.16;100.00;101750.88;2112297;27;46300;-59
2023/10/01 04:39:00;;;;;;;;;11.00;10.00;;;;;22.17;100.00;101749.06;2113675;27;46270;-59
2023/10/01 04:40:02;;;;;;;;;15.00;14.20;;;;;22.18;100.00;101750.78;2113468;27;46907;-60
2023/10/01 04:41:07;;;;;;;;;12.00;11.75;;;;;22.19;100.00;101745.31;2113561;27;46304;-59
2023/10/01 04:42:09;;;;;;;;;12.25;11.25;;;;;22.21;100.00;101746.09;2113265;27;46442;-59
2023/10/01 04:43:10;;;;;;;;;10.25;10.25;;;;;22.20;100.00;101743.47;2112389;27;46508;-57
2023/10/01 04:44:13;;;;;;;;;15.50;13.75;;;;;22.21;100.00;101748.78;2112802;27;46709;-60
2023/10/01 04:45:22;;;;;;;;;11.00;11.00;;;;;22.24;100.00;101753.19;2113595;27;45668;-57
2023/10/01 04:46:29;;;;;;;;;13.80;11.80;;;;;22.24;100.00;101743.25;2113317;27;46395;-57
2023/10/01 04:47:40;;;;;;;;;13.00;12.50;;;;;22.25;100.00;101752.22;2113688;27;46773;-59
2023/10/01 04:48:42;;;;;;;;;13.50;13.25;;;;;22.24;100.00;101753.19;2113990;27;46589;-59
2023/10/01 04:49:43;;;;;;;;;13.40;13.00;;;;;22.23;100.00;101746.00;2113370;27;46389;-60
2023/10/01 04:50:46;;;;;;;;;16.00;16.00;;;;;22.24;100.00;101747.78;2113389;27;46301;-59
2023/10/01 04:51:47;;;;;;;;;17.00;16.80;;;;;22.23;100.00;101746.91;2113399;27;47033;-58
2023/10/01 04:52:47;;;;;;;;;12.00;11.75;;;;;22.23;100.00;101752.31;2113362;27;46595;-60
2023/10/01 04:53:52;;;;;;;;;13.75;13.25;;;;;22.24;100.00;101751.34;2113645;27;46434;-59
2023/10/01 04:54:52;;;;;;;;;16.00;14.00;;;;;22.22;100.00;101753.25;2111360;27;46432;-59
2023/10/01 04:56:06;;;;;;;;;12.00;11.50;;;;;22.22;100.00;101755.06;2114038;27;46312;-59
2023/10/01 04:57:06;;;;;;;;;15.20;14.00;;;;;22.20;100.00;101751.59;2113481;27;46343;-59